sensor_id;sensor_type;location;lat;lon;timestamp;P1;durP1;ratioP1;P2;durP2;ratioP2
4915;SDS011;70796;52.406;13.230;2024-01-10T00:02:07;49.60;;;21.80;;
4915;SDS011;70796;52.406;13.230;2024-01-10T00:04:34;47.50;;;21.53;;
4915;SDS011;70796;52.406;13.230;2024-01-10T00:07:00;45.57;;;20.27;;
4915;SDS011;70796;52.406;13.230;2024-01-10T00:09:28;50.03;;;22.80;;
4915;SDS011;70796;52.406;13.230;2024-01-10T00:11:55;49.67;;;24.10;;
4915;SDS011;70796;52.406;13.230;2024-01-10T00:14:21;47.30;;;23.30;;
4915;SDS011;70796;52.406;13.230;2024-01-10T00:16:47;45.17;;;22.90;;
4915;SDS011;70796;52.406;13.230;2024-01-10T00:19:14;49.83;;;21.47;;
4915;SDS011;70796;52.406;13.230;2024-01-10T00:21:41;42.03;;;22.70;;
4915;SDS011;70796;52.406;13.230;2024-01-10T00:24:08;44.20;;;21.10;;
4915;SDS011;70796;52.406;13.230;2024-01-10T00:26:37;55.57;;;23.07;;
4915;SDS011;70796;52.406;13.230;2024-01-10T00:29:04;44.27;;;21.57;;
4915;SDS011;70796;52.406;13.230;2024-01-10T00:31:31;44.27;;;22.60;;
4915;SDS011;70796;52.406;13.230;2024-01-10T00:33:58;48.40;;;23.53;;
4915;SDS011;70796;52.406;13.230;2024-01-10T00:36:27;50.60;;;23.57;;
4915;SDS011;70796;52.406;13.230;2024-01-10T00:38:54;52.03;;;22.97;;
4915;SDS011;70796;52.406;13.230;2024-01-10T00:41:20;50.07;;;22.67;;
4915;SDS011;70796;52.406;13.230;2024-01-10T00:43:47;46.00;;;22.40;;
4915;SDS011;70796;52.406;13.230;2024-01-10T00:46:13;51.70;;;23.13;;
4915;SDS011;70796;52.406;13.230;2024-01-10T00:48:40;50.57;;;23.03;;
4915;SDS011;70796;52.406;13.230;2024-01-10T00:51:07;47.57;;;22.20;;
4915;SDS011;70796;52.406;13.230;2024-01-10T00:53:35;54.50;;;23.90;;
4915;SDS011;70796;52.406;13.230;2024-01-10T00:56:02;52.13;;;24.17;;
4915;SDS011;70796;52.406;13.230;2024-01-10T00:58:28;47.77;;;21.90;;
4915;SDS011;70796;52.406;13.230;2024-01-10T01:00:55;45.37;;;21.73;;
4915;SDS011;70796;52.406;13.230;2024-01-10T01:03:21;47.90;;;22.77;;
4915;SDS011;70796;52.406;13.230;2024-01-10T01:05:48;51.77;;;23.83;;
4915;SDS011;70796;52.406;13.230;2024-01-10T01:08:14;49.73;;;22.63;;
4915;SDS011;70796;52.406;13.230;2024-01-10T01:10:41;52.97;;;24.27;;
4915;SDS011;70796;52.406;13.230;2024-01-10T01:13:07;51.67;;;23.63;;
4915;SDS011;70796;52.406;13.230;2024-01-10T01:15:34;51.43;;;23.10;;
4915;SDS011;70796;52.406;13.230;2024-01-10T01:18:00;56.73;;;23.23;;
4915;SDS011;70796;52.406;13.230;2024-01-10T01:20:27;49.77;;;21.30;;
4915;SDS011;70796;52.406;13.230;2024-01-10T01:22:56;47.03;;;22.67;;
4915;SDS011;70796;52.406;13.230;2024-01-10T01:25:24;46.67;;;21.43;;
4915;SDS011;70796;52.406;13.230;2024-01-10T01:27:50;46.27;;;21.83;;
4915;SDS011;70796;52.406;13.230;2024-01-10T01:30:17;49.10;;;22.50;;
4915;SDS011;70796;52.406;13.230;2024-01-10T01:32:43;47.03;;;22.10;;
4915;SDS011;70796;52.406;13.230;2024-01-10T01:35:10;46.67;;;21.90;;
4915;SDS011;70796;52.406;13.230;2024-01-10T01:37:37;51.80;;;22.30;;
4915;SDS011;70796;52.406;13.230;2024-01-10T01:40:06;50.97;;;22.67;;
4915;SDS011;70796;52.406;13.230;2024-01-10T01:42:33;47.07;;;23.20;;
4915;SDS011;70796;52.406;13.230;2024-01-10T01:44:59;52.87;;;24.63;;
4915;SDS011;70796;52.406;13.230;2024-01-10T01:47:27;48.57;;;21.83;;
4915;SDS011;70796;52.406;13.230;2024-01-10T01:49:54;49.43;;;21.83;;
4915;SDS011;70796;52.406;13.230;2024-01-10T01:52:21;46.00;;;21.97;;
4915;SDS011;70796;52.406;13.230;2024-01-10T01:54:48;49.67;;;22.93;;
4915;SDS011;70796;52.406;13.230;2024-01-10T01:57:14;45.83;;;22.60;;
4915;SDS011;70796;52.406;13.230;2024-01-10T01:59:40;46.20;;;22.03;;
4915;SDS011;70796;52.406;13.230;2024-01-10T02:02:07;49.07;;;22.73;;
4915;SDS011;70796;52.406;13.230;2024-01-10T02:04:33;46.70;;;24.20;;
4915;SDS011;70796;52.406;13.230;2024-01-10T02:07:01;49.77;;;23.47;;
4915;SDS011;70796;52.406;13.230;2024-01-10T02:09:28;56.50;;;22.73;;
4915;SDS011;70796;52.406;13.230;2024-01-10T02:11:56;56.37;;;22.67;;
4915;SDS011;70796;52.406;13.230;2024-01-10T02:14:23;47.70;;;21.67;;
4915;SDS011;70796;52.406;13.230;2024-01-10T02:16:49;49.23;;;21.70;;
4915;SDS011;70796;52.406;13.230;2024-01-10T02:19:20;43.50;;;21.20;;
4915;SDS011;70796;52.406;13.230;2024-01-10T02:21:47;54.50;;;22.20;;
4915;SDS011;70796;52.406;13.230;2024-01-10T02:24:15;50.20;;;23.40;;
4915;SDS011;70796;52.406;13.230;2024-01-10T02:26:41;55.33;;;23.03;;
4915;SDS011;70796;52.406;13.230;2024-01-10T02:29:08;52.43;;;20.20;;
4915;SDS011;70796;52.406;13.230;2024-01-10T02:31:35;42.40;;;21.87;;
4915;SDS011;70796;52.406;13.230;2024-01-10T02:34:02;49.60;;;21.70;;
4915;SDS011;70796;52.406;13.230;2024-01-10T02:36:28;48.67;;;22.30;;
4915;SDS011;70796;52.406;13.230;2024-01-10T02:38:55;48.00;;;22.33;;
4915;SDS011;70796;52.406;13.230;2024-01-10T02:41:24;50.03;;;23.97;;
4915;SDS011;70796;52.406;13.230;2024-01-10T02:43:50;50.07;;;21.87;;
4915;SDS011;70796;52.406;13.230;2024-01-10T02:46:18;49.70;;;22.33;;
4915;SDS011;70796;52.406;13.230;2024-01-10T02:48:46;43.93;;;21.60;;
4915;SDS011;70796;52.406;13.230;2024-01-10T02:51:12;49.77;;;21.70;;
4915;SDS011;70796;52.406;13.230;2024-01-10T02:53:39;44.87;;;21.30;;
4915;SDS011;70796;52.406;13.230;2024-01-10T02:56:08;51.77;;;22.43;;
4915;SDS011;70796;52.406;13.230;2024-01-10T02:58:35;45.17;;;22.70;;
4915;SDS011;70796;52.406;13.230;2024-01-10T03:01:01;49.47;;;22.50;;
4915;SDS011;70796;52.406;13.230;2024-01-10T03:03:28;53.50;;;21.30;;
4915;SDS011;70796;52.406;13.230;2024-01-10T03:05:57;52.37;;;23.37;;
4915;SDS011;70796;52.406;13.230;2024-01-10T03:08:24;45.10;;;20.27;;
4915;SDS011;70796;52.406;13.230;2024-01-10T03:10:51;50.07;;;23.60;;
4915;SDS011;70796;52.406;13.230;2024-01-10T03:13:18;52.77;;;23.10;;
4915;SDS011;70796;52.406;13.230;2024-01-10T03:15:44;51.23;;;23.90;;
4915;SDS011;70796;52.406;13.230;2024-01-10T03:18:15;53.73;;;23.83;;
4915;SDS011;70796;52.406;13.230;2024-01-10T03:20:42;46.00;;;23.83;;
4915;SDS011;70796;52.406;13.230;2024-01-10T03:23:09;49.17;;;21.10;;
4915;SDS011;70796;52.406;13.230;2024-01-10T03:25:37;48.10;;;23.30;;
4915;SDS011;70796;52.406;13.230;2024-01-10T03:28:04;54.23;;;22.50;;
4915;SDS011;70796;52.406;13.230;2024-01-10T03:30:31;44.33;;;22.37;;
4915;SDS011;70796;52.406;13.230;2024-01-10T03:32:58;54.07;;;24.03;;
4915;SDS011;70796;52.406;13.230;2024-01-10T03:35:25;48.37;;;23.47;;
4915;SDS011;70796;52.406;13.230;2024-01-10T03:37:51;59.07;;;23.73;;
4915;SDS011;70796;52.406;13.230;2024-01-10T03:40:18;42.67;;;22.47;;
4915;SDS011;70796;52.406;13.230;2024-01-10T03:42:46;49.47;;;22.67;;
4915;SDS011;70796;52.406;13.230;2024-01-10T03:45:14;52.80;;;23.20;;
4915;SDS011;70796;52.406;13.230;2024-01-10T03:47:47;47.13;;;21.63;;
4915;SDS011;70796;52.406;13.230;2024-01-10T03:50:17;59.80;;;24.17;;
4915;SDS011;70796;52.406;13.230;2024-01-10T03:52:44;52.07;;;23.47;;
4915;SDS011;70796;52.406;13.230;2024-01-10T03:55:13;54.63;;;23.97;;
4915;SDS011;70796;52.406;13.230;2024-01-10T03:57:40;53.53;;;22.93;;
4915;SDS011;70796;52.406;13.230;2024-01-10T04:00:06;52.83;;;22.20;;
4915;SDS011;70796;52.406;13.230;2024-01-10T04:02:38;46.17;;;22.27;;
4915;SDS011;70796;52.406;13.230;2024-01-10T04:05:09;50.23;;;22.17;;
4915;SDS011;70796;52.406;13.230;2024-01-10T04:07:36;50.40;;;23.37;;
4915;SDS011;70796;52.406;13.230;2024-01-10T04:10:04;49.90;;;22.90;;
4915;SDS011;70796;52.406;13.230;2024-01-10T04:12:31;52.53;;;23.43;;
4915;SDS011;70796;52.406;13.230;2024-01-10T04:14:57;54.70;;;22.67;;
4915;SDS011;70796;52.406;13.230;2024-01-10T04:17:24;52.57;;;23.53;;
4915;SDS011;70796;52.406;13.230;2024-01-10T04:19:50;46.47;;;23.03;;
4915;SDS011;70796;52.406;13.230;2024-01-10T04:22:17;51.37;;;22.80;;
4915;SDS011;70796;52.406;13.230;2024-01-10T04:24:44;49.93;;;25.50;;
4915;SDS011;70796;52.406;13.230;2024-01-10T04:27:11;56.00;;;24.40;;
4915;SDS011;70796;52.406;13.230;2024-01-10T04:29:37;45.47;;;22.10;;
4915;SDS011;70796;52.406;13.230;2024-01-10T04:32:04;56.10;;;23.80;;
4915;SDS011;70796;52.406;13.230;2024-01-10T04:34:31;44.80;;;21.73;;
4915;SDS011;70796;52.406;13.230;2024-01-10T04:36:57;46.93;;;22.03;;
4915;SDS011;70796;52.406;13.230;2024-01-10T04:39:24;49.27;;;23.17;;
4915;SDS011;70796;52.406;13.230;2024-01-10T04:41:51;52.47;;;23.03;;
4915;SDS011;70796;52.406;13.230;2024-01-10T04:44:20;51.00;;;22.77;;
4915;SDS011;70796;52.406;13.230;2024-01-10T04:46:47;48.07;;;22.23;;
4915;SDS011;70796;52.406;13.230;2024-01-10T04:49:13;46.67;;;21.97;;
4915;SDS011;70796;52.406;13.230;2024-01-10T04:51:42;52.37;;;23.80;;
4915;SDS011;70796;52.406;13.230;2024-01-10T04:54:09;49.37;;;22.47;;
4915;SDS011;70796;52.406;13.230;2024-01-10T04:56:37;49.30;;;20.93;;
4915;SDS011;70796;52.406;13.230;2024-01-10T04:59:03;50.60;;;22.63;;
4915;SDS011;70796;52.406;13.230;2024-01-10T05:01:30;53.17;;;22.87;;
4915;SDS011;70796;52.406;13.230;2024-01-10T05:03:57;52.97;;;22.97;;
4915;SDS011;70796;52.406;13.230;2024-01-10T05:06:23;46.53;;;21.00;;
4915;SDS011;70796;52.406;13.230;2024-01-10T05:08:50;51.30;;;23.87;;
4915;SDS011;70796;52.406;13.230;2024-01-10T05:11:16;51.07;;;23.47;;
4915;SDS011;70796;52.406;13.230;2024-01-10T05:13:43;54.90;;;22.23;;
4915;SDS011;70796;52.406;13.230;2024-01-10T05:16:09;54.27;;;23.97;;
4915;SDS011;70796;52.406;13.230;2024-01-10T05:18:36;48.00;;;23.20;;
4915;SDS011;70796;52.406;13.230;2024-01-10T05:21:03;52.00;;;22.80;;
4915;SDS011;70796;52.406;13.230;2024-01-10T05:23:30;59.60;;;23.60;;
4915;SDS011;70796;52.406;13.230;2024-01-10T05:25:59;55.50;;;24.00;;
4915;SDS011;70796;52.406;13.230;2024-01-10T05:28:26;50.33;;;22.07;;
4915;SDS011;70796;52.406;13.230;2024-01-10T05:30:53;48.97;;;22.87;;
4915;SDS011;70796;52.406;13.230;2024-01-10T05:33:20;54.33;;;21.00;;
4915;SDS011;70796;52.406;13.230;2024-01-10T05:35:47;45.50;;;22.67;;
4915;SDS011;70796;52.406;13.230;2024-01-10T05:38:13;56.53;;;24.20;;
4915;SDS011;70796;52.406;13.230;2024-01-10T05:40:44;52.83;;;23.30;;
4915;SDS011;70796;52.406;13.230;2024-01-10T05:43:12;50.77;;;23.63;;
4915;SDS011;70796;52.406;13.230;2024-01-10T05:45:39;49.00;;;23.47;;
4915;SDS011;70796;52.406;13.230;2024-01-10T05:48:06;65.27;;;26.87;;
4915;SDS011;70796;52.406;13.230;2024-01-10T05:50:33;57.77;;;24.47;;
4915;SDS011;70796;52.406;13.230;2024-01-10T05:53:00;58.60;;;25.60;;
4915;SDS011;70796;52.406;13.230;2024-01-10T05:55:29;62.93;;;25.70;;
4915;SDS011;70796;52.406;13.230;2024-01-10T05:57:56;54.30;;;25.13;;
4915;SDS011;70796;52.406;13.230;2024-01-10T06:00:25;60.87;;;25.33;;
4915;SDS011;70796;52.406;13.230;2024-01-10T06:02:52;48.80;;;23.97;;
4915;SDS011;70796;52.406;13.230;2024-01-10T06:05:21;48.77;;;23.27;;
4915;SDS011;70796;52.406;13.230;2024-01-10T06:07:48;54.97;;;25.90;;
4915;SDS011;70796;52.406;13.230;2024-01-10T06:10:16;66.50;;;25.37;;
4915;SDS011;70796;52.406;13.230;2024-01-10T06:12:45;58.40;;;25.90;;
4915;SDS011;70796;52.406;13.230;2024-01-10T06:15:12;60.17;;;25.73;;
4915;SDS011;70796;52.406;13.230;2024-01-10T06:17:38;59.53;;;25.43;;
4915;SDS011;70796;52.406;13.230;2024-01-10T06:20:05;63.33;;;27.57;;
4915;SDS011;70796;52.406;13.230;2024-01-10T06:22:33;55.83;;;25.73;;
4915;SDS011;70796;52.406;13.230;2024-01-10T06:25:02;54.17;;;26.10;;
4915;SDS011;70796;52.406;13.230;2024-01-10T06:27:28;56.80;;;24.60;;
4915;SDS011;70796;52.406;13.230;2024-01-10T06:29:57;57.77;;;24.13;;
4915;SDS011;70796;52.406;13.230;2024-01-10T06:32:32;51.67;;;23.33;;
4915;SDS011;70796;52.406;13.230;2024-01-10T06:35:01;54.70;;;24.40;;
4915;SDS011;70796;52.406;13.230;2024-01-10T06:37:28;69.10;;;27.30;;
4915;SDS011;70796;52.406;13.230;2024-01-10T06:39:56;61.77;;;25.07;;
4915;SDS011;70796;52.406;13.230;2024-01-10T06:42:32;48.60;;;24.00;;
4915;SDS011;70796;52.406;13.230;2024-01-10T06:45:00;54.73;;;24.57;;
4915;SDS011;70796;52.406;13.230;2024-01-10T06:47:29;57.57;;;25.00;;
4915;SDS011;70796;52.406;13.230;2024-01-10T06:49:56;54.03;;;24.70;;
4915;SDS011;70796;52.406;13.230;2024-01-10T06:52:23;57.77;;;24.57;;
4915;SDS011;70796;52.406;13.230;2024-01-10T06:54:50;56.37;;;26.33;;
4915;SDS011;70796;52.406;13.230;2024-01-10T06:57:16;57.83;;;25.77;;
4915;SDS011;70796;52.406;13.230;2024-01-10T06:59:43;56.00;;;26.40;;
4915;SDS011;70796;52.406;13.230;2024-01-10T07:02:10;48.60;;;23.57;;
4915;SDS011;70796;52.406;13.230;2024-01-10T07:04:37;53.10;;;25.70;;
4915;SDS011;70796;52.406;13.230;2024-01-10T07:07:05;59.70;;;26.73;;
4915;SDS011;70796;52.406;13.230;2024-01-10T07:09:32;58.23;;;25.07;;
4915;SDS011;70796;52.406;13.230;2024-01-10T07:11:59;55.00;;;24.87;;
4915;SDS011;70796;52.406;13.230;2024-01-10T07:14:26;56.90;;;24.67;;
4915;SDS011;70796;52.406;13.230;2024-01-10T07:16:53;51.40;;;24.93;;
4915;SDS011;70796;52.406;13.230;2024-01-10T07:19:23;54.87;;;25.00;;
4915;SDS011;70796;52.406;13.230;2024-01-10T07:21:51;54.83;;;24.90;;
4915;SDS011;70796;52.406;13.230;2024-01-10T07:24:17;56.80;;;26.80;;
4915;SDS011;70796;52.406;13.230;2024-01-10T07:26:44;58.77;;;26.40;;
4915;SDS011;70796;52.406;13.230;2024-01-10T07:29:11;61.90;;;26.40;;
4915;SDS011;70796;52.406;13.230;2024-01-10T07:31:40;58.00;;;25.80;;
4915;SDS011;70796;52.406;13.230;2024-01-10T07:34:07;55.87;;;25.90;;
4915;SDS011;70796;52.406;13.230;2024-01-10T07:36:33;60.63;;;25.70;;
4915;SDS011;70796;52.406;13.230;2024-01-10T07:39:07;55.67;;;25.17;;
4915;SDS011;70796;52.406;13.230;2024-01-10T07:41:35;65.77;;;28.17;;
4915;SDS011;70796;52.406;13.230;2024-01-10T07:44:08;65.20;;;27.17;;
4915;SDS011;70796;52.406;13.230;2024-01-10T07:46:37;58.13;;;26.10;;
4915;SDS011;70796;52.406;13.230;2024-01-10T07:49:05;56.50;;;26.37;;
4915;SDS011;70796;52.406;13.230;2024-01-10T07:51:31;64.13;;;27.20;;
4915;SDS011;70796;52.406;13.230;2024-01-10T07:53:59;60.00;;;27.40;;
4915;SDS011;70796;52.406;13.230;2024-01-10T07:56:26;64.73;;;27.30;;
4915;SDS011;70796;52.406;13.230;2024-01-10T07:58:53;59.57;;;26.57;;
4915;SDS011;70796;52.406;13.230;2024-01-10T08:01:21;63.53;;;27.70;;
4915;SDS011;70796;52.406;13.230;2024-01-10T08:03:48;68.33;;;28.50;;
4915;SDS011;70796;52.406;13.230;2024-01-10T08:06:18;58.50;;;25.00;;
4915;SDS011;70796;52.406;13.230;2024-01-10T08:08:55;64.00;;;28.97;;
4915;SDS011;70796;52.406;13.230;2024-01-10T08:11:24;55.10;;;27.30;;
4915;SDS011;70796;52.406;13.230;2024-01-10T08:13:54;66.13;;;27.77;;
4915;SDS011;70796;52.406;13.230;2024-01-10T08:19:22;57.73;;;25.73;;
4915;SDS011;70796;52.406;13.230;2024-01-10T08:21:51;60.07;;;28.47;;
4915;SDS011;70796;52.406;13.230;2024-01-10T08:24:19;58.53;;;26.27;;
4915;SDS011;70796;52.406;13.230;2024-01-10T08:26:48;56.30;;;28.23;;
4915;SDS011;70796;52.406;13.230;2024-01-10T08:29:22;59.13;;;27.70;;
4915;SDS011;70796;52.406;13.230;2024-01-10T08:31:53;63.80;;;29.67;;
4915;SDS011;70796;52.406;13.230;2024-01-10T08:34:24;69.37;;;29.20;;
4915;SDS011;70796;52.406;13.230;2024-01-10T08:36:57;61.10;;;28.20;;
4915;SDS011;70796;52.406;13.230;2024-01-10T08:39:34;58.17;;;28.20;;
4915;SDS011;70796;52.406;13.230;2024-01-10T08:42:04;63.77;;;27.40;;
4915;SDS011;70796;52.406;13.230;2024-01-10T08:44:37;57.30;;;26.67;;
4915;SDS011;70796;52.406;13.230;2024-01-10T08:47:09;61.70;;;28.47;;
4915;SDS011;70796;52.406;13.230;2024-01-10T08:49:42;57.63;;;26.67;;
4915;SDS011;70796;52.406;13.230;2024-01-10T08:52:17;59.37;;;29.10;;
4915;SDS011;70796;52.406;13.230;2024-01-10T08:54:47;57.93;;;28.67;;
4915;SDS011;70796;52.406;13.230;2024-01-10T08:57:19;55.80;;;26.63;;
4915;SDS011;70796;52.406;13.230;2024-01-10T08:59:50;62.97;;;28.90;;
4915;SDS011;70796;52.406;13.230;2024-01-10T09:02:23;58.63;;;26.60;;
4915;SDS011;70796;52.406;13.230;2024-01-10T09:04:54;58.50;;;27.60;;
4915;SDS011;70796;52.406;13.230;2024-01-10T09:07:22;64.23;;;28.97;;
4915;SDS011;70796;52.406;13.230;2024-01-10T09:09:50;69.80;;;28.50;;
4915;SDS011;70796;52.406;13.230;2024-01-10T09:12:17;58.03;;;25.73;;
4915;SDS011;70796;52.406;13.230;2024-01-10T09:14:44;69.67;;;28.67;;
4915;SDS011;70796;52.406;13.230;2024-01-10T09:17:11;68.03;;;30.07;;
4915;SDS011;70796;52.406;13.230;2024-01-10T09:19:38;75.10;;;28.00;;
4915;SDS011;70796;52.406;13.230;2024-01-10T09:22:05;54.33;;;26.80;;
4915;SDS011;70796;52.406;13.230;2024-01-10T09:24:35;61.33;;;28.77;;
4915;SDS011;70796;52.406;13.230;2024-01-10T09:27:03;54.93;;;25.80;;
4915;SDS011;70796;52.406;13.230;2024-01-10T09:29:30;62.03;;;28.33;;
4915;SDS011;70796;52.406;13.230;2024-01-10T09:31:58;69.90;;;28.87;;
4915;SDS011;70796;52.406;13.230;2024-01-10T09:34:24;53.40;;;25.03;;
4915;SDS011;70796;52.406;13.230;2024-01-10T09:36:53;61.53;;;27.13;;
4915;SDS011;70796;52.406;13.230;2024-01-10T09:39:22;65.97;;;26.43;;
4915;SDS011;70796;52.406;13.230;2024-01-10T09:41:49;59.33;;;24.97;;
4915;SDS011;70796;52.406;13.230;2024-01-10T09:44:20;51.37;;;25.90;;
4915;SDS011;70796;52.406;13.230;2024-01-10T09:46:53;53.50;;;24.70;;
4915;SDS011;70796;52.406;13.230;2024-01-10T09:49:20;57.27;;;25.30;;
4915;SDS011;70796;52.406;13.230;2024-01-10T09:51:50;47.17;;;25.23;;
4915;SDS011;70796;52.406;13.230;2024-01-10T09:54:17;53.30;;;23.60;;
4915;SDS011;70796;52.406;13.230;2024-01-10T09:56:47;56.67;;;24.03;;
4915;SDS011;70796;52.406;13.230;2024-01-10T09:59:13;56.57;;;26.87;;
4915;SDS011;70796;52.406;13.230;2024-01-10T10:01:40;64.83;;;27.47;;
4915;SDS011;70796;52.406;13.230;2024-01-10T10:04:11;61.57;;;27.67;;
4915;SDS011;70796;52.406;13.230;2024-01-10T10:06:38;54.20;;;25.47;;
4915;SDS011;70796;52.406;13.230;2024-01-10T10:09:06;64.00;;;26.57;;
4915;SDS011;70796;52.406;13.230;2024-01-10T10:11:33;55.47;;;24.93;;
4915;SDS011;70796;52.406;13.230;2024-01-10T10:14:13;51.73;;;24.93;;
4915;SDS011;70796;52.406;13.230;2024-01-10T10:16:40;54.83;;;24.47;;
4915;SDS011;70796;52.406;13.230;2024-01-10T10:19:08;63.97;;;24.93;;
4915;SDS011;70796;52.406;13.230;2024-01-10T10:21:36;58.63;;;25.37;;
4915;SDS011;70796;52.406;13.230;2024-01-10T10:24:03;45.17;;;22.30;;
4915;SDS011;70796;52.406;13.230;2024-01-10T10:26:34;55.47;;;22.07;;
4915;SDS011;70796;52.406;13.230;2024-01-10T10:29:01;54.63;;;24.47;;
4915;SDS011;70796;52.406;13.230;2024-01-10T10:31:29;42.90;;;20.97;;
4915;SDS011;70796;52.406;13.230;2024-01-10T10:34:00;49.40;;;25.27;;
4915;SDS011;70796;52.406;13.230;2024-01-10T10:36:30;54.10;;;23.63;;
4915;SDS011;70796;52.406;13.230;2024-01-10T10:39:01;55.00;;;23.50;;
4915;SDS011;70796;52.406;13.230;2024-01-10T10:41:30;52.67;;;23.97;;
4915;SDS011;70796;52.406;13.230;2024-01-10T10:44:05;56.17;;;22.77;;
4915;SDS011;70796;52.406;13.230;2024-01-10T10:46:35;49.53;;;22.37;;
4915;SDS011;70796;52.406;13.230;2024-01-10T10:49:05;47.50;;;21.03;;
4915;SDS011;70796;52.406;13.230;2024-01-10T10:51:33;45.73;;;21.17;;
4915;SDS011;70796;52.406;13.230;2024-01-10T10:54:02;46.97;;;21.90;;
4915;SDS011;70796;52.406;13.230;2024-01-10T10:56:33;42.43;;;20.50;;
4915;SDS011;70796;52.406;13.230;2024-01-10T10:59:03;42.83;;;20.60;;
4915;SDS011;70796;52.406;13.230;2024-01-10T11:01:31;65.67;;;26.67;;
4915;SDS011;70796;52.406;13.230;2024-01-10T11:04:01;53.13;;;23.73;;
4915;SDS011;70796;52.406;13.230;2024-01-10T11:06:28;48.87;;;22.60;;
4915;SDS011;70796;52.406;13.230;2024-01-10T11:08:59;44.47;;;19.10;;
4915;SDS011;70796;52.406;13.230;2024-01-10T11:14:03;50.03;;;24.60;;
4915;SDS011;70796;52.406;13.230;2024-01-10T11:16:43;52.10;;;20.83;;
4915;SDS011;70796;52.406;13.230;2024-01-10T11:19:27;36.03;;;19.30;;
4915;SDS011;70796;52.406;13.230;2024-01-10T11:22:20;42.77;;;21.30;;
4915;SDS011;70796;52.406;13.230;2024-01-10T11:24:51;46.93;;;21.90;;
4915;SDS011;70796;52.406;13.230;2024-01-10T11:27:18;44.27;;;22.30;;
4915;SDS011;70796;52.406;13.230;2024-01-10T11:29:45;46.07;;;22.70;;
4915;SDS011;70796;52.406;13.230;2024-01-10T11:32:12;45.47;;;21.00;;
4915;SDS011;70796;52.406;13.230;2024-01-10T11:34:58;38.60;;;20.43;;
4915;SDS011;70796;52.406;13.230;2024-01-10T11:37:39;42.80;;;19.73;;
4915;SDS011;70796;52.406;13.230;2024-01-10T11:40:07;49.70;;;21.83;;
4915;SDS011;70796;52.406;13.230;2024-01-10T11:42:42;44.73;;;21.57;;
4915;SDS011;70796;52.406;13.230;2024-01-10T11:45:09;42.47;;;21.13;;
4915;SDS011;70796;52.406;13.230;2024-01-10T11:47:40;51.80;;;23.23;;
4915;SDS011;70796;52.406;13.230;2024-01-10T11:50:09;42.00;;;20.70;;
4915;SDS011;70796;52.406;13.230;2024-01-10T11:52:44;49.63;;;23.17;;
4915;SDS011;70796;52.406;13.230;2024-01-10T11:55:22;51.97;;;22.23;;
4915;SDS011;70796;52.406;13.230;2024-01-10T11:58:08;49.47;;;22.83;;
4915;SDS011;70796;52.406;13.230;2024-01-10T12:00:36;44.93;;;22.97;;
4915;SDS011;70796;52.406;13.230;2024-01-10T12:03:03;44.27;;;20.33;;
4915;SDS011;70796;52.406;13.230;2024-01-10T12:05:31;47.47;;;23.30;;
4915;SDS011;70796;52.406;13.230;2024-01-10T12:07:58;47.97;;;22.50;;
4915;SDS011;70796;52.406;13.230;2024-01-10T12:10:30;46.60;;;21.50;;
4915;SDS011;70796;52.406;13.230;2024-01-10T12:13:03;47.83;;;21.23;;
4915;SDS011;70796;52.406;13.230;2024-01-10T12:15:30;49.53;;;24.07;;
4915;SDS011;70796;52.406;13.230;2024-01-10T12:17:58;58.43;;;23.00;;
4915;SDS011;70796;52.406;13.230;2024-01-10T12:20:26;49.63;;;22.23;;
4915;SDS011;70796;52.406;13.230;2024-01-10T12:22:52;64.27;;;21.63;;
4915;SDS011;70796;52.406;13.230;2024-01-10T12:25:18;59.50;;;22.77;;
4915;SDS011;70796;52.406;13.230;2024-01-10T12:27:46;50.23;;;23.13;;
4915;SDS011;70796;52.406;13.230;2024-01-10T12:30:13;47.47;;;22.37;;
4915;SDS011;70796;52.406;13.230;2024-01-10T12:32:42;42.70;;;20.80;;
4915;SDS011;70796;52.406;13.230;2024-01-10T12:35:10;43.57;;;20.90;;
4915;SDS011;70796;52.406;13.230;2024-01-10T12:37:37;49.97;;;23.00;;
4915;SDS011;70796;52.406;13.230;2024-01-10T12:40:04;41.20;;;19.80;;
4915;SDS011;70796;52.406;13.230;2024-01-10T12:42:36;43.63;;;19.23;;
4915;SDS011;70796;52.406;13.230;2024-01-10T12:45:03;41.70;;;17.77;;
4915;SDS011;70796;52.406;13.230;2024-01-10T12:47:34;41.57;;;19.70;;
4915;SDS011;70796;52.406;13.230;2024-01-10T12:50:02;52.33;;;19.77;;
4915;SDS011;70796;52.406;13.230;2024-01-10T12:52:29;41.67;;;18.10;;
4915;SDS011;70796;52.406;13.230;2024-01-10T12:54:55;39.50;;;19.00;;
4915;SDS011;70796;52.406;13.230;2024-01-10T12:57:21;47.83;;;21.10;;
4915;SDS011;70796;52.406;13.230;2024-01-10T12:59:48;43.27;;;20.20;;
4915;SDS011;70796;52.406;13.230;2024-01-10T13:02:14;34.70;;;17.50;;
4915;SDS011;70796;52.406;13.230;2024-01-10T13:04:41;42.03;;;19.10;;
4915;SDS011;70796;52.406;13.230;2024-01-10T13:07:08;35.73;;;17.53;;
4915;SDS011;70796;52.406;13.230;2024-01-10T13:09:35;45.53;;;18.73;;
4915;SDS011;70796;52.406;13.230;2024-01-10T13:12:04;37.70;;;18.37;;
4915;SDS011;70796;52.406;13.230;2024-01-10T13:14:31;33.20;;;17.10;;
4915;SDS011;70796;52.406;13.230;2024-01-10T13:16:59;39.50;;;19.40;;
4915;SDS011;70796;52.406;13.230;2024-01-10T13:19:27;36.83;;;17.57;;
4915;SDS011;70796;52.406;13.230;2024-01-10T13:21:56;38.17;;;18.40;;
4915;SDS011;70796;52.406;13.230;2024-01-10T13:24:22;46.20;;;19.60;;
4915;SDS011;70796;52.406;13.230;2024-01-10T13:26:49;35.73;;;17.47;;
4915;SDS011;70796;52.406;13.230;2024-01-10T13:29:17;39.20;;;18.83;;
4915;SDS011;70796;52.406;13.230;2024-01-10T13:31:43;38.50;;;17.63;;
4915;SDS011;70796;52.406;13.230;2024-01-10T13:34:11;44.63;;;18.30;;
4915;SDS011;70796;52.406;13.230;2024-01-10T13:36:38;41.37;;;19.73;;
4915;SDS011;70796;52.406;13.230;2024-01-10T13:39:05;47.67;;;19.70;;
4915;SDS011;70796;52.406;13.230;2024-01-10T13:41:33;36.07;;;17.97;;
4915;SDS011;70796;52.406;13.230;2024-01-10T13:44:01;40.60;;;20.20;;
4915;SDS011;70796;52.406;13.230;2024-01-10T13:46:28;41.53;;;21.47;;
4915;SDS011;70796;52.406;13.230;2024-01-10T13:48:55;42.63;;;19.53;;
4915;SDS011;70796;52.406;13.230;2024-01-10T13:51:23;41.20;;;17.53;;
4915;SDS011;70796;52.406;13.230;2024-01-10T13:53:50;39.43;;;17.60;;
4915;SDS011;70796;52.406;13.230;2024-01-10T13:56:17;41.27;;;19.53;;
4915;SDS011;70796;52.406;13.230;2024-01-10T13:58:44;38.10;;;18.27;;
4915;SDS011;70796;52.406;13.230;2024-01-10T14:01:11;38.23;;;18.43;;
4915;SDS011;70796;52.406;13.230;2024-01-10T14:03:41;39.33;;;17.13;;
4915;SDS011;70796;52.406;13.230;2024-01-10T14:06:08;34.97;;;17.27;;
4915;SDS011;70796;52.406;13.230;2024-01-10T14:08:39;40.87;;;16.37;;
4915;SDS011;70796;52.406;13.230;2024-01-10T14:11:07;36.20;;;17.30;;
4915;SDS011;70796;52.406;13.230;2024-01-10T14:13:35;35.20;;;17.17;;
4915;SDS011;70796;52.406;13.230;2024-01-10T14:16:02;37.57;;;18.00;;
4915;SDS011;70796;52.406;13.230;2024-01-10T14:18:29;39.57;;;17.03;;
4915;SDS011;70796;52.406;13.230;2024-01-10T14:20:56;36.10;;;17.67;;
4915;SDS011;70796;52.406;13.230;2024-01-10T14:23:22;43.43;;;18.50;;
4915;SDS011;70796;52.406;13.230;2024-01-10T14:25:49;35.07;;;17.97;;
4915;SDS011;70796;52.406;13.230;2024-01-10T14:28:20;30.97;;;16.10;;
4915;SDS011;70796;52.406;13.230;2024-01-10T14:30:48;35.60;;;18.63;;
4915;SDS011;70796;52.406;13.230;2024-01-10T14:33:16;35.20;;;17.20;;